Latest Weather Observations for Viewbank

IDV60801

Issued at 11:02 pm EDT Saturday 28 March 2015 (issued every 30 minutes, with the page automatically refreshed every 10 minutes)

About weather observations | Map of weather stations | Latest weather observations for VIC | Other Formats
Station Details ID: 086068 Name: VIEWBANK Lat: -37.74 Lon: 145.10 Height: 66.1 m
Data from the previous 72 hours. | See also: Recent months at Viewbank
Date/Time
EDT
Temp
°C
App
Temp
°C
Dew
Point
Rel
Hum
%
Delta-T
°C
Wind Press
QNH
hPa
Press
MSL
hPa
Rain
since 9 am
mm
Dir
 
Spd
km/h
Gust
km/h
Spd
kts
Gust
kts
28/11:00pm 11.6 11.3 8.6 82 1.5 CALM 0 0 0 0 1022.6 1022.5 0.0
28/10:30pm 12.3 11.9 8.4 77 1.9 CALM 0 0 0 0 1022.5 1022.4 0.0
28/10:00pm 13.6 13.3 8.7 72 2.5 CALM 0 0 0 0 1022.5 1022.4 0.0
28/09:30pm 14.1 13.8 8.5 69 2.8 CALM 0 6 0 3 1022.5 1022.4 0.0
28/09:00pm 14.4 13.4 8.8 69 2.8 S 4 7 2 4 1022.5 1022.4 0.0
28/08:30pm 14.5 13.7 8.2 66 3.2 NE 2 6 1 3 1022.5 1022.4 0.0
28/08:00pm 15.1 13.5 8.1 63 3.5 NE 6 7 3 4 1022.2 1022.1 0.0
28/07:30pm 15.8 14.1 8.3 61 3.8 ENE 7 11 4 6 1022.1 1022.0 0.0
28/07:00pm 16.7 14.6 8.4 58 4.2 ENE 9 15 5 8 1022.0 1021.9 0.0
28/06:30pm 17.5 15.4 8.4 55 4.7 ENE 9 13 5 7 1021.8 1021.7 0.0
28/06:00pm 18.1 16.0 8.4 53 5.0 ENE 9 15 5 8 1021.8 1021.7 0.0
28/05:30pm 18.2 16.2 8.5 53 5.0 ESE 9 13 5 7 1022.0 1021.9 0.0
28/05:00pm 18.4 16.6 8.1 51 5.3 NE 7 15 4 8 1022.2 1022.1 0.0
28/04:30pm 18.6 16.5 8.3 51 5.3 E 9 17 5 9 1022.7 1022.6 0.0
28/04:00pm 17.8 16.0 8.1 53 4.9 E 7 17 4 9 1023.0 1022.9 0.0
28/03:30pm 17.6 15.4 7.9 53 4.9 E 9 13 5 7 1023.3 1023.2 0.0
28/03:00pm 17.2 15.6 7.8 54 4.7 ENE 6 9 3 5 1023.6 1023.5 0.0
28/02:30pm 16.9 15.1 8.1 56 4.5 E 7 9 4 5 1023.8 1023.7 0.0
28/02:00pm 16.9 15.8 8.6 58 4.2 ESE 4 7 2 4 1024.3 1024.2 0.0
28/01:30pm 16.4 14.6 8.1 58 4.2 SW 7 13 4 7 1024.7 1024.6 0.0
28/01:00pm 16.1 14.0 8.3 60 3.9 SSW 9 13 5 7 1024.9 1024.8 0.0
28/12:30pm 15.9 14.3 8.6 62 3.7 SSW 7 11 4 6 1025.5 1025.4 0.0
28/12:00pm 15.4 13.2 7.9 61 3.7 S 9 13 5 7 1025.7 1025.6 0.0
28/11:30am 15.2 13.7 8.4 64 3.4 W 6 11 3 6 1025.9 1025.8 0.0
28/11:00am 14.9 13.6 9.3 69 2.9 SSW 6 9 3 5 1025.7 1025.6 0.0
28/10:30am 14.1 14.3 10.5 79 1.9 CALM 0 0 0 0 1026.1 1026.0 0.0
28/10:00am 13.3 13.2 10.8 85 1.3 ESE 2 7 1 4 1026.2 1026.1 0.0
28/09:30am 12.7 11.9 10.9 89 0.9 ENE 6 9 3 5 1026.1 1026.0 0.0
28/09:00am 12.5 11.5 10.4 87 1.1 ESE 6 9 3 5 1026.0 1025.9 0.0
28/08:30am 12.9 12.8 9.5 80 1.7 CALM 0 0 0 0 1025.7 1025.6 0.0
28/08:00am 12.6 12.4 9.2 80 1.7 CALM 0 0 0 0 1025.2 1025.1 0.0
28/07:30am 12.6 11.3 9.1 79 1.8 WSW 6 9 3 5 1025.0 1024.9 0.0
28/07:00am 12.7 10.8 9.0 78 1.9 WSW 9 13 5 7 1024.7 1024.6 0.0
28/06:30am 12.4 10.4 8.7 78 1.8 W 9 13 5 7 1024.7 1024.6 0.0
28/06:00am 12.1 10.7 8.8 80 1.6 WNW 6 9 3 5 1024.5 1024.4 0.0
28/05:30am 11.8 10.3 8.6 81 1.6 W 6 11 3 6 1024.5 1024.4 0.0
28/05:00am 11.7 10.1 8.6 81 1.5 WNW 7 11 4 6 1024.3 1024.2 0.0
28/04:30am 11.7 10.1 8.6 81 1.5 NW 7 11 4 6 1024.3 1024.2 0.0
28/04:00am 11.6 10.0 8.6 82 1.5 WNW 7 11 4 6 1024.3 1024.2 0.0
28/03:30am 11.0 9.4 8.6 85 1.2 W 7 11 4 6 1024.2 1024.1 0.0
28/03:00am 11.4 9.7 8.3 81 1.5 W 7 11 4 6 1024.5 1024.4 0.0
28/02:30am 12.0 10.3 8.3 78 1.8 W 7 11 4 6 1024.5 1024.4 0.0
28/02:00am 12.5 10.4 8.2 75 2.1 WSW 9 13 5 7 1024.6 1024.5 0.0
28/01:30am 13.2 10.9 7.6 69 2.8 W 9 13 5 7 1024.5 1024.4 0.0
28/01:00am 13.8 11.2 7.8 67 3.0 WSW 11 17 6 9 1024.6 1024.5 0.0
28/12:30am 14.1 11.1 7.9 66 3.1 W 13 20 7 11 1024.5 1024.4 0.0
28/12:00am 14.0 11.9 8.2 68 2.9 WSW 9 15 5 8 1024.8 1024.7 0.0
 
Date/Time
EDT
Temp
°C
App
Temp
°C
Dew
Point
Rel
Hum
%
Delta-T
°C
Wind Press
QNH
hPa
Press
MSL
hPa
Rain
since 9 am
mm
Dir
 
Spd
km/h
Gust
km/h
Spd
kts
Gust
kts
27/11:30pm 13.9 11.5 8.7 71 2.6 SW 11 19 6 10 1024.9 1024.8 0.0
27/11:00pm 14.3 11.5 8.7 69 2.8 SSW 13 22 7 12 1024.9 1024.8 0.0
27/10:30pm 14.8 12.4 8.5 66 3.2 SW 11 19 6 10 1024.9 1024.8 0.0
27/10:00pm 14.8 11.9 8.3 65 3.3 SW 13 19 7 10 1024.9 1024.8 0.0
27/09:30pm 15.0 11.2 9.1 68 3.0 SSW 19 30 10 16 1024.9 1024.8 0.0
27/09:00pm 15.1 13.0 8.1 63 3.5 SW 9 15 5 8 1024.6 1024.5 0.0
27/08:30pm 15.1 12.6 8.3 64 3.4 SW 11 17 6 9 1024.4 1024.3 0.0
27/08:00pm 15.1 12.3 8.6 65 3.3 SSW 13 17 7 9 1024.1 1024.0 0.0
27/07:30pm 15.1 11.6 8.8 66 3.2 SSW 17 24 9 13 1023.9 1023.8 0.0
27/07:00pm 15.5 11.7 7.5 59 4.0 SSW 17 24 9 13 1023.5 1023.4 0.0
27/06:30pm 15.7 12.6 7.2 57 4.2 SSW 13 22 7 12 1023.3 1023.2 0.0
27/06:00pm 16.2 12.2 6.6 53 4.7 WSW 17 24 9 13 1023.1 1023.0 0.0
27/05:30pm 16.6 13.1 7.0 53 4.8 SW 15 22 8 12 1023.0 1022.9 0.0
27/05:00pm 16.2 12.3 7.2 55 4.5 SSW 17 28 9 15 1023.0 1022.9 0.0
27/04:30pm 15.9 11.6 6.9 55 4.4 SSW 19 28 10 15 1023.1 1023.0 0.0
27/04:00pm 16.7 12.2 7.1 53 4.8 SW 20 35 11 19 1023.0 1022.9 0.0
27/03:30pm 17.2 12.8 7.5 53 4.9 SSW 20 32 11 17 1022.9 1022.8 0.0
27/03:00pm 17.3 12.4 6.8 50 5.2 SW 22 35 12 19 1022.9 1022.8 0.0
27/02:30pm 18.0 13.7 7.1 49 5.5 SW 19 32 10 17 1023.1 1023.0 0.0
27/02:00pm 15.9 10.8 7.7 58 4.1 SW 24 35 13 19 1023.4 1023.3 0.0
27/01:30pm 16.0 11.6 7.5 57 4.2 SW 20 32 11 17 1023.5 1023.4 0.0
27/01:00pm 16.4 12.2 8.1 58 4.2 SW 20 32 11 17 1023.4 1023.3 0.0
27/12:30pm 16.5 11.8 7.7 56 4.4 SW 22 35 12 19 1023.7 1023.6 0.0
27/12:00pm 15.7 11.1 8.2 61 3.8 WSW 22 41 12 22 1023.8 1023.7 0.0
27/11:30am 15.9 11.9 8.4 61 3.8 WSW 19 32 10 17 1023.7 1023.6 0.0
27/11:00am 15.6 10.6 8.1 61 3.8 WSW 24 39 13 21 1023.6 1023.5 0.0
27/10:53am 15.1 9.2 7.6 61 3.7 WSW 28 50 15 27 1023.6 1023.5 0.0
27/10:30am 15.3 11.8 8.8 65 3.3 WSW 17 33 9 18 1023.4 1023.3 0.0
27/10:00am 14.6 10.6 9.2 70 2.8 WSW 20 32 11 17 1023.2 1023.1 0.0
27/09:30am 13.9 9.9 8.9 72 2.5 W 20 37 11 20 1023.0 1022.9 0.0
27/09:00am 13.0 8.3 9.3 78 1.9 W 24 39 13 21 1022.7 1022.6 0.4
27/08:30am 13.1 8.8 9.2 77 2.0 W 22 37 12 20 1022.4 1022.3 0.4
27/08:00am 12.9 9.6 9.4 79 1.8 W 17 33 9 18 1021.9 1021.8 0.4
27/07:30am 12.9 8.2 9.2 78 1.9 W 24 35 13 19 1021.4 1021.2 0.4
27/07:00am 13.1 9.2 9.4 78 1.9 W 20 43 11 23 1021.0 1020.8 0.4
27/06:30am 13.1 9.3 9.0 76 2.1 W 19 30 10 16 1020.9 1020.7 0.4
27/06:00am 12.8 9.8 9.3 79 1.8 W 15 28 8 15 1020.4 1020.2 0.4
27/05:30am 12.8 9.0 9.1 78 1.9 W 19 30 10 16 1020.2 1020.0 0.4
27/05:00am 12.8 8.8 8.9 77 2.0 W 20 32 11 17 1020.0 1019.8 0.4
27/04:30am 13.0 9.6 9.1 77 2.0 W 17 28 9 15 1020.0 1019.8 0.4
27/04:00am 13.1 9.3 9.0 76 2.1 W 19 28 10 15 1019.8 1019.6 0.4
27/03:30am 13.2 9.2 8.9 75 2.2 W 20 35 11 19 1019.7 1019.5 0.4
27/03:00am 13.5 9.7 9.0 74 2.3 W 19 33 10 18 1019.5 1019.3 0.4
27/02:30am 13.6 9.5 8.7 72 2.5 W 20 37 11 20 1019.5 1019.3 0.4
27/02:00am 13.6 10.5 8.9 73 2.4 WNW 15 24 8 13 1019.4 1019.2 0.4
27/01:30am 13.5 10.4 8.8 73 2.4 WNW 15 24 8 13 1019.4 1019.2 0.4
27/01:00am 13.7 9.8 8.7 72 2.5 WNW 19 33 10 18 1019.6 1019.4 0.4
27/12:30am 13.9 10.4 8.9 72 2.5 WNW 17 28 9 15 1019.4 1019.2 0.4
27/12:00am 13.8 10.7 8.8 72 2.5 WNW 15 26 8 14 1019.3 1019.1 0.4
 
Date/Time
EDT
Temp
°C
App
Temp
°C
Dew
Point
Rel
Hum
%
Delta-T
°C
Wind Press
QNH
hPa
Press
MSL
hPa
Rain
since 9 am
mm
Dir
 
Spd
km/h
Gust
km/h
Spd
kts
Gust
kts
26/11:30pm 13.8 10.3 8.6 71 2.6 WNW 17 32 9 17 1019.2 1019.0 0.4
26/11:00pm 14.0 10.8 8.4 69 2.8 WNW 15 28 8 15 1019.1 1018.9 0.4
26/10:30pm 14.0 10.0 8.2 68 2.9 W 19 32 10 17 1019.0 1018.8 0.4
26/10:00pm 14.2 10.1 7.9 66 3.1 WNW 19 32 10 17 1018.9 1018.7 0.4
26/09:30pm 14.1 11.1 7.6 65 3.2 WNW 13 26 7 14 1018.9 1018.7 0.4
26/09:00pm 14.2 10.3 7.3 63 3.4 WNW 17 28 9 15 1018.5 1018.3 0.4
26/08:30pm 14.3 9.9 6.6 60 3.7 WNW 19 32 10 17 1018.1 1017.9 0.4
26/08:00pm 14.5 9.9 6.3 58 3.9 NW 20 37 11 20 1017.9 1017.7 0.4
26/07:30pm 14.8 9.3 5.9 55 4.3 WNW 24 43 13 23 1017.7 1017.5 0.4
26/07:00pm 14.9 10.3 5.4 53 4.5 WNW 19 35 10 19 1017.1 1016.9 0.4
26/06:30pm 13.8 8.9 7.1 64 3.3 WNW 22 54 12 29 1016.8 1016.6 0.4
26/06:21pm 14.3 8.0 5.9 57 4.0 WNW 28 54 15 29 1016.9 1016.7 0.2
26/06:00pm 15.9 10.7 3.7 44 5.6 WNW 20 35 11 19 1016.4 1016.2 0.0
26/05:30pm 16.4 10.6 2.1 38 6.4 WNW 22 43 12 23 1016.3 1016.1 0.0
26/05:00pm 17.0 10.5 0.6 33 7.2 NW 24 43 13 23 1016.0 1015.8 0.0
26/04:30pm 17.0 11.3 0.6 33 7.2 NW 20 33 11 18 1016.1 1015.9 0.0
26/04:00pm 17.0 11.5 0.6 33 7.2 NNW 19 28 10 15 1016.3 1016.1 0.0
26/03:30pm 17.1 11.0 0.3 32 7.3 NW 22 37 12 20 1016.5 1016.3 0.0
26/03:00pm 18.4 12.8 1.0 31 7.7 NW 20 35 11 19 1016.9 1016.7 0.0
26/02:30pm 16.6 10.2 1.1 35 6.8 NW 24 37 13 20 1017.4 1017.2 0.0
26/02:00pm 17.6 12.3 1.6 34 7.2 WNW 19 35 10 19 1017.7 1017.5 0.0
26/01:30pm 16.1 11.1 1.4 37 6.5 NW 17 28 9 15 1017.9 1017.7 0.0
26/01:00pm 16.8 10.9 2.0 37 6.6 NW 22 35 12 19 1018.0 1017.8 0.0
26/12:30pm 15.5 10.5 1.6 39 6.1 WNW 17 26 9 14 1018.2 1018.0 0.0
26/12:00pm 14.9 9.5 1.1 39 6.0 NW 19 33 10 18 1018.4 1018.2 0.0
26/11:30am 14.9 10.1 2.4 43 5.6 WNW 17 26 9 14 1018.5 1018.3 0.0
26/11:00am 14.7 9.7 3.5 47 5.1 WNW 19 30 10 16 1018.6 1018.4 0.0
26/10:30am 13.7 9.8 5.3 57 3.9 WNW 15 26 8 14 1018.5 1018.3 0.0
26/10:00am 12.6 8.7 5.3 61 3.4 NNW 15 24 8 13 1018.6 1018.4 0.0
26/09:30am 11.8 8.2 5.0 63 3.1 NNW 13 22 7 12 1018.3 1018.1 0.0
26/09:00am 10.8 8.4 7.1 78 1.8 N 9 15 5 8 1018.3 1018.1 1.0
26/08:30am 9.8 7.3 6.7 81 1.5 N 9 15 5 8 1018.1 1017.9 1.0
26/08:00am 8.8 5.8 6.1 83 1.2 N 11 17 6 9 1017.6 1017.4 1.0
26/07:30am 8.4 5.9 6.4 87 0.9 N 9 13 5 7 1017.2 1017.0 1.0
26/07:00am 8.5 6.1 7.0 90 0.7 N 9 13 5 7 1016.8 1016.6 1.0
26/06:30am 8.8 6.5 7.6 92 0.6 N 9 13 5 7 1016.6 1016.4 1.0
26/06:00am 9.1 7.0 8.2 94 0.4 N 9 13 5 7 1016.3 1016.1 1.0
26/05:30am 9.5 7.7 7.9 90 0.8 NNW 7 13 4 7 1016.2 1016.0 1.0
26/05:00am 9.8 7.9 7.7 87 1.0 N 7 13 4 7 1015.9 1015.7 1.0
26/04:30am 10.3 7.4 6.3 76 1.9 WNW 11 19 6 10 1016.0 1015.8 0.6
26/04:00am 11.5 8.3 4.9 64 3.0 WNW 11 20 6 11 1015.5 1015.3 0.2
26/03:30am 11.9 9.0 4.6 61 3.3 WNW 9 19 5 10 1015.6 1015.4 0.2
26/03:00am 11.7 7.4 5.1 64 3.0 W 17 24 9 13 1015.8 1015.6 0.2
26/02:30am 11.6 7.3 5.3 65 2.9 WSW 17 26 9 14 1016.1 1015.9 0.2
26/02:00am 11.7 7.5 5.6 66 2.8 WSW 17 30 9 16 1016.1 1015.9 0.2
26/01:30am 12.3 7.0 5.2 62 3.3 WSW 22 37 12 20 1015.7 1015.5 0.2
26/01:00am 14.7 11.0 2.3 43 5.5 N 11 19 6 10 1014.3 1014.1 0.2
26/12:30am 14.2 9.7 2.1 44 5.3 N 15 24 8 13 1014.3 1014.1 0.2
26/12:00am 13.8 10.1 2.1 45 5.1 N 11 17 6 9 1014.3 1014.1 0.2
 
Date/Time
EDT
Temp
°C
App
Temp
°C
Dew
Point
Rel
Hum
%
Delta-T
°C
Wind Press
QNH
hPa
Press
MSL
hPa
Rain
since 9 am
mm
Dir
 
Spd
km/h
Gust
km/h
Spd
kts
Gust
kts
25/11:30pm 14.4 10.0 2.6 45 5.3 N 15 22 8 12 1014.6 1014.4 0.2

Other Formats:

Comma delimited format used in spreadsheet applications
http://www.bom.gov.au/fwo/IDV60801/IDV60801.95874.axf

JavaScript Object Notation format (JSON) in row-major order
http://www.bom.gov.au/fwo/IDV60801/IDV60801.95874.json